Terminal Aerodrome Forecast
Issued by NWS Sterling, VA

Current Version | Previous Version | Graphics & Text | Print | Product List | Glossary On
Versions: 1 2 3 4 5 6 7 8 9 10 11 12 13 14 15 16 17 18 19 20 21
000
FTUS41 KLWX 150405 AAA
TAFMRB
TAF AMD
KMRB 150405Z 1504/1524 VRB03KT 4SM BR BKN009
     FM151200 19007KT 6SM BR SCT050
     FM151800 21010G17KT P6SM SCT050=

USA.gov is the U.S. government's official web portal to all federal, state and local government web resources and services.